Time;durP1;ratioP1;P1;durP2;ratioP2;P2;SDS_P1;SDS_P2;PMS_P1;PMS_P2;Temp;Humidity;BMP_temperature;BMP_pressure;BME280_temperature;BME280_humidity;BME280_pressure;Samples;Min_cycle;Max_cycle;Signal;HPM_P1;HPM_P2
2021/11/13 17:01:56;;;;;;;512.80;66.85;;;13.70;96.20;;;;;;5144484;27;21179;-93
2021/11/13 17:04:36;;;;;;;349.52;50.85;;;13.30;96.20;;;;;;5103273;28;20082;-94
2021/11/13 17:07:12;;;;;;;381.27;52.97;;;13.20;95.60;;;;;;5097807;27;20127;-94
2021/11/13 17:09:38;;;;;;;295.38;46.10;;;13.30;95.50;;;;;;5079014;28;20039;-94
2021/11/13 17:12:04;;;;;;;379.50;51.70;;;13.50;95.50;;;;;;5090744;28;20024;-95
2021/11/13 17:14:29;;;;;;;301.77;43.80;;;13.10;95.20;;;;;;5077877;28;20048;-93
2021/11/13 17:17:00;;;;;;;315.60;43.83;;;13.20;95.10;;;;;;5076820;28;20039;-92
2021/11/13 17:19:27;;;;;;;380.67;49.92;;;13.20;95.10;;;;;;5076120;28;20027;-94
2021/11/13 17:21:53;;;;;;;443.70;53.60;;;13.20;95.30;;;;;;5095403;28;20102;-92
2021/11/13 17:24:24;;;;;;;362.08;52.85;;;13.40;95.50;;;;;;5078947;28;20024;-92
2021/11/13 17:26:53;;;;;;;396.88;54.00;;;13.10;95.20;;;;;;5092197;28;20035;-94
2021/11/13 17:29:19;;;;;;;423.05;60.88;;;13.30;95.20;;;;;;5089662;27;20189;-91
2021/11/13 17:32:32;;;;;;;;;;;;;;;;;;;;;
2021/11/13 17:35:08;;;;;;;504.13;62.58;;;13.20;95.30;;;;;;5120113;27;20083;-94
2021/11/13 17:37:37;;;;;;;;;;;13.40;95.50;;;;;;5095931;27;20035;-94
2021/11/13 17:40:08;;;;;;;446.58;62.92;;;13.40;95.40;;;;;;5098951;27;20350;-93
2021/11/13 17:42:43;;;;;;;461.92;69.03;;;13.00;95.30;;;;;;5071162;27;20038;-92
2021/11/13 17:45:11;;;;;;;397.38;61.45;;;13.50;95.50;;;;;;5087349;27;20064;-93
2021/11/13 17:48:00;;;;;;;329.33;51.97;;;13.70;95.30;;;;;;5063248;28;20023;-92
2021/11/13 17:50:33;;;;;;;340.00;54.28;;;13.50;95.10;;;;;;5092663;27;20057;-92
2021/11/13 17:53:04;;;;;;;392.88;57.50;;;13.60;95.10;;;;;;5060546;27;20027;-93
2021/11/13 17:55:29;;;;;;;407.13;61.28;;;13.70;94.80;;;;;;5053471;27;20032;-91
2021/11/13 17:57:55;;;;;;;372.77;55.88;;;13.40;94.80;;;;;;5087874;27;20134;-91
2021/11/13 18:00:32;;;;;;;321.67;55.60;;;13.70;94.90;;;;;;5069821;27;20805;-92
2021/11/13 18:02:58;;;;;;;389.45;58.38;;;13.70;94.70;;;;;;5091888;27;20097;-90
2021/11/13 18:05:25;;;;;;;360.60;57.08;;;14.00;95.00;;;;;;5073438;28;20110;-94
2021/11/13 18:07:50;;;;;;;508.45;77.82;;;13.40;94.80;;;;;;5072480;28;20020;-91
2021/11/13 18:10:21;;;;;;;455.63;63.90;;;13.50;94.70;;;;;;5075992;28;20103;-92
2021/11/13 18:12:51;;;;;;;547.85;77.10;;;13.80;94.60;;;;;;5093457;28;20027;-91
2021/11/13 18:15:17;;;;;;;421.17;62.50;;;13.70;94.80;;;;;;5059693;27;20039;-93
2021/11/13 18:17:49;;;;;;;507.48;74.05;;;13.60;94.70;;;;;;5057692;28;20032;-94
2021/11/13 18:20:15;;;;;;;303.70;55.05;;;13.50;94.60;;;;;;5090947;27;20103;-92
2021/11/13 18:22:42;;;;;;;331.63;56.95;;;13.90;94.70;;;;;;5059794;28;20605;-93
2021/11/13 18:25:09;;;;;;;357.38;61.33;;;13.70;94.70;;;;;;5060122;28;20122;-91
2021/11/13 18:28:10;;;;;;;376.55;57.85;;;13.70;94.60;;;;;;5058924;27;20061;-93
2021/11/13 18:30:39;;;;;;;346.67;57.15;;;13.60;94.50;;;;;;5096947;28;20100;-95
2021/11/13 18:33:06;;;;;;;511.00;79.93;;;13.70;94.50;;;;;;5074968;28;20035;-92
2021/11/13 18:35:33;;;;;;;372.77;60.05;;;13.60;94.60;;;;;;5058307;28;20077;-92
2021/11/13 18:37:59;;;;;;;298.92;53.22;;;13.70;94.50;;;;;;5056873;28;20130;-92
2021/11/13 18:40:27;;;;;;;288.42;52.50;;;13.80;94.50;;;;;;5059267;28;20027;-92
2021/11/13 18:43:08;;;;;;;302.83;52.38;;;13.60;94.50;;;;;;5074094;28;20099;-91
2021/11/13 18:48:50;;;;;;;289.33;49.95;;;13.80;94.70;;;;;;5084199;27;20035;-92
2021/11/13 18:51:18;;;;;;;285.63;54.25;;;13.70;95.20;;;;;;5074306;28;20032;-91
2021/11/13 18:53:47;;;;;;;301.10;55.13;;;13.50;95.00;;;;;;5060295;28;20039;-92
2021/11/13 18:56:13;;;;;;;285.98;54.05;;;13.70;94.90;;;;;;5056915;28;20055;-91
2021/11/13 18:58:45;;;;;;;279.77;52.90;;;13.70;95.00;;;;;;5058095;28;20031;-92
2021/11/13 19:01:20;;;;;;;272.30;50.30;;;13.70;94.80;;;;;;5072412;28;20115;-93
2021/11/13 19:03:46;;;;;;;535.88;69.43;;;13.40;94.80;;;;;;5060255;28;20060;-92
2021/11/13 19:06:13;;;;;;;402.90;69.20;;;13.60;94.90;;;;;;5058659;27;20087;-89
2021/11/13 19:08:39;;;;;;;431.90;77.50;;;13.40;94.80;;;;;;5060059;28;20047;-93
2021/11/13 19:11:04;;;;;;;430.85;84.88;;;13.70;94.80;;;;;;5077928;28;20043;-91
2021/11/13 19:13:30;;;;;;;395.23;80.47;;;13.60;94.80;;;;;;5056477;28;20019;-92
2021/11/13 19:15:56;;;;;;;422.55;81.65;;;13.40;94.80;;;;;;5052853;28;20027;-92
2021/11/13 19:18:25;;;;;;;410.60;76.68;;;13.60;95.30;;;;;;5070519;28;20043;-92
2021/11/13 19:21:05;;;;;;;429.27;76.78;;;13.60;94.70;;;;;;5073209;28;20130;-92
2021/11/13 19:23:37;;;;;;;390.17;71.28;;;13.40;95.00;;;;;;5074208;28;20028;-93
2021/11/13 19:26:23;;;;;;;376.45;68.00;;;13.60;95.00;;;;;;5050594;27;20039;-92
2021/11/13 19:28:52;;;;;;;398.05;70.45;;;13.60;95.00;;;;;;5074333;28;20067;-93
2021/11/13 19:31:22;;;;;;;409.58;70.60;;;13.60;95.10;;;;;;5054090;28;20142;-94
2021/11/13 19:34:11;;;;;;;363.30;71.95;;;13.60;94.80;;;;;;5079800;28;20102;-93
2021/11/13 19:36:47;;;;;;;347.10;63.67;;;13.70;94.70;;;;;;5082597;28;20043;-94
2021/11/13 19:39:13;;;;;;;353.40;64.35;;;13.50;94.70;;;;;;5073907;28;20036;-94
2021/11/13 19:41:47;;;;;;;338.60;63.90;;;13.60;94.60;;;;;;5055647;28;20024;-93
2021/11/13 19:44:14;;;;;;;382.13;63.73;;;14.00;94.60;;;;;;5071429;28;20043;-92
2021/11/13 19:46:46;;;;;;;339.88;61.25;;;13.60;94.50;;;;;;5061493;28;20028;-95
2021/11/13 19:49:16;;;;;;;325.88;62.72;;;13.40;94.50;;;;;;5059506;28;20043;-95
2021/11/13 19:51:42;;;;;;;379.85;63.10;;;13.50;94.70;;;;;;5076306;28;20020;-93
2021/11/13 19:54:08;;;;;;;334.35;61.30;;;13.30;94.60;;;;;;5058714;28;20032;-96
2021/11/13 19:56:37;;;;;;;293.75;58.45;;;13.50;94.70;;;;;;5058192;27;20030;-94
2021/11/13 19:59:06;;;;;;;304.33;57.53;;;13.30;94.50;;;;;;5060531;28;20152;-93
2021/11/13 20:01:42;;;;;;;286.50;55.38;;;13.40;94.60;;;;;;5059991;28;20039;-93
2021/11/13 20:04:14;;;;;;;284.38;56.50;;;13.40;94.80;;;;;;5071048;27;20529;-93
2021/11/13 20:07:02;;;;;;;227.75;49.35;;;13.50;94.60;;;;;;5093409;28;20045;-95
2021/11/13 20:09:32;;;;;;;280.50;50.90;;;13.30;94.20;;;;;;5076943;28;20366;-95
2021/11/13 20:11:57;;;;;;;270.67;53.42;;;13.30;94.50;;;;;;5076231;28;20034;-93
2021/11/13 20:14:34;;;;;;;261.13;52.58;;;13.00;94.40;;;;;;5075825;28;20123;-93
2021/11/13 20:16:59;;;;;;;244.73;53.08;;;13.40;94.50;;;;;;5075393;28;20122;-93
2021/11/13 20:19:25;;;;;;;259.35;50.88;;;13.10;94.30;;;;;;5054997;28;20411;-91
2021/11/13 20:22:00;;;;;;;259.27;52.22;;;13.00;94.50;;;;;;5056466;28;20028;-95
2021/11/13 20:24:26;;;;;;;247.90;50.80;;;13.30;94.50;;;;;;5073861;28;20019;-94
2021/11/13 20:26:55;;;;;;;222.35;49.00;;;13.20;94.10;;;;;;5060646;28;20043;-94
2021/11/13 20:29:36;;;;;;;188.40;45.42;;;13.00;94.10;;;;;;5058767;28;20027;-94
2021/11/13 20:32:02;;;;;;;201.95;44.60;;;12.90;93.90;;;;;;5077724;28;20023;-92
2021/11/13 20:34:28;;;;;;;213.98;46.83;;;12.90;94.20;;;;;;5061078;28;20028;-92
2021/11/13 20:36:56;;;;;;;216.90;44.25;;;13.20;94.40;;;;;;5060153;28;20019;-93
2021/11/13 20:39:27;;;;;;;237.27;48.67;;;13.00;94.20;;;;;;5058465;28;20084;-93
2021/11/13 20:42:19;;;;;;;221.95;46.85;;;12.90;94.30;;;;;;5060896;28;20019;-93
2021/11/13 20:44:46;;;;;;;214.90;46.42;;;12.90;94.50;;;;;;5058559;28;20031;-94
2021/11/13 20:47:12;;;;;;;214.52;43.95;;;13.00;94.40;;;;;;5052935;28;20104;-92
2021/11/13 20:49:38;;;;;;;193.70;44.72;;;12.90;94.80;;;;;;5067021;28;20032;-91
2021/11/13 20:52:11;;;;;;;227.60;49.00;;;12.50;94.30;;;;;;5054313;28;20042;-94
2021/11/13 20:54:37;;;;;;;205.82;47.38;;;12.70;94.30;;;;;;5051940;28;20390;-93
2021/11/13 20:57:03;;;;;;;190.25;44.33;;;12.70;94.30;;;;;;5048583;28;20032;-93
2021/11/13 20:59:29;;;;;;;192.98;43.20;;;12.60;94.30;;;;;;5044965;28;20040;-92
2021/11/13 21:01:57;;;;;;;198.43;47.28;;;12.60;94.40;;;;;;5060165;28;20135;-90
2021/11/13 21:04:24;;;;;;;177.23;42.67;;;12.50;94.40;;;;;;5041274;28;20032;-91
2021/11/13 21:06:51;;;;;;;184.02;43.20;;;12.50;94.40;;;;;;5046334;28;20069;-90
2021/11/13 21:09:16;;;;;;;176.88;47.42;;;12.70;94.50;;;;;;5064233;28;20127;-91
2021/11/13 21:11:42;;;;;;;178.98;51.42;;;12.50;94.40;;;;;;5047082;28;20103;-93
2021/11/13 21:14:08;;;;;;;163.95;54.55;;;12.40;94.30;;;;;;5048085;28;20166;-94
2021/11/13 21:16:33;;;;;;;165.23;47.60;;;12.60;94.50;;;;;;5050549;28;20024;-91
2021/11/13 21:18:59;;;;;;;141.70;43.90;;;12.40;94.30;;;;;;5052915;28;20323;-92
2021/11/13 21:21:24;;;;;;;188.38;45.33;;;12.40;94.40;;;;;;5049402;28;20032;-92
2021/11/13 21:23:50;;;;;;;165.25;45.72;;;12.40;94.40;;;;;;5068333;28;20157;-92
2021/11/13 21:26:16;;;;;;;165.60;47.78;;;12.40;94.50;;;;;;5054974;28;20048;-90
2021/11/13 21:28:41;;;;;;;147.77;42.53;;;12.30;94.40;;;;;;5055286;28;20111;-91
2021/11/13 21:31:07;;;;;;;148.43;43.33;;;12.30;94.40;;;;;;5070951;28;20509;-92
2021/11/13 21:33:34;;;;;;;145.55;44.92;;;12.30;94.80;;;;;;5068356;28;20036;-93
2021/11/13 21:36:00;;;;;;;135.85;43.35;;;12.30;94.50;;;;;;5068373;28;20509;-93
2021/11/13 21:38:27;;;;;;;123.85;40.58;;;12.30;94.60;;;;;;5054697;28;20057;-93
2021/11/13 21:40:52;;;;;;;122.72;41.88;;;12.30;94.60;;;;;;5072853;28;20035;-93
2021/11/13 21:43:18;;;;;;;163.35;43.35;;;12.20;94.60;;;;;;5054667;28;20028;-93
2021/11/13 21:45:45;;;;;;;159.00;54.60;;;12.20;94.60;;;;;;5052052;28;20420;-94
2021/11/13 21:48:33;;;;;;;161.90;51.20;;;12.20;94.60;;;;;;5073550;28;20047;-94
2021/11/13 21:51:11;;;;;;;139.38;45.35;;;12.40;94.70;;;;;;5090162;28;20355;-94
2021/11/13 21:53:37;;;;;;;146.85;43.13;;;12.30;94.90;;;;;;5062394;28;20024;-95
2021/11/13 21:56:02;;;;;;;130.18;42.55;;;12.50;94.90;;;;;;5063074;28;20020;-94
2021/11/13 21:58:31;;;;;;;134.32;41.97;;;12.20;95.10;;;;;;5074827;28;20636;-94
2021/11/13 22:01:01;;;;;;;114.00;40.30;;;12.00;94.70;;;;;;5056509;28;20059;-93
2021/11/13 22:03:26;;;;;;;129.18;43.42;;;12.00;94.70;;;;;;5058068;28;20028;-93
2021/11/13 22:05:52;;;;;;;123.18;40.67;;;12.10;94.80;;;;;;5053239;28;20537;-93
2021/11/13 22:08:17;;;;;;;121.60;40.17;;;12.10;94.80;;;;;;5056373;28;20114;-93
2021/11/13 22:10:44;;;;;;;106.35;39.85;;;12.00;94.80;;;;;;5051773;28;20042;-94
2021/11/13 22:13:11;;;;;;;96.97;38.03;;;12.10;94.70;;;;;;5067783;28;20058;-92
2021/11/13 22:15:36;;;;;;;125.07;39.80;;;12.10;94.70;;;;;;5071395;28;20032;-93
2021/11/13 22:18:02;;;;;;;123.55;40.17;;;12.20;94.80;;;;;;5055965;28;20479;-93
2021/11/13 22:20:28;;;;;;;117.90;41.03;;;12.00;94.80;;;;;;5056489;28;20028;-94
2021/11/13 22:22:54;;;;;;;106.10;36.55;;;11.90;95.30;;;;;;5057240;28;20427;-93
2021/11/13 22:25:20;;;;;;;116.93;39.60;;;11.90;94.90;;;;;;5056696;28;20063;-94
2021/11/13 22:27:46;;;;;;;102.57;38.88;;;12.30;94.90;;;;;;5055120;28;20093;-91
2021/11/13 22:30:22;;;;;;;106.43;39.85;;;12.30;95.00;;;;;;5055055;28;20030;-94
2021/11/13 22:32:47;;;;;;;99.95;40.67;;;12.00;94.80;;;;;;5053631;28;20085;-92
2021/11/13 22:35:13;;;;;;;115.53;43.47;;;11.90;94.80;;;;;;5054634;28;20062;-93
2021/11/13 22:37:39;;;;;;;97.57;42.20;;;11.90;94.80;;;;;;5054570;28;20540;-93
2021/11/13 22:40:06;;;;;;;125.22;44.45;;;11.90;94.80;;;;;;5057045;28;20364;-94
2021/11/13 22:42:31;;;;;;;114.72;43.30;;;12.00;94.80;;;;;;5056206;28;20115;-94
2021/11/13 22:44:57;;;;;;;94.40;42.67;;;11.90;94.80;;;;;;5056379;28;20184;-92
2021/11/13 22:47:26;;;;;;;104.32;42.17;;;11.90;95.00;;;;;;5070596;28;20111;-93
2021/11/13 22:49:52;;;;;;;103.05;43.13;;;11.80;94.70;;;;;;5057004;28;20024;-93
2021/11/13 22:52:18;;;;;;;90.03;42.95;;;12.10;94.90;;;;;;5070730;28;20444;-93
2021/11/13 22:54:53;;;;;;;105.50;44.30;;;11.70;94.80;;;;;;5054622;28;20076;-94
2021/11/13 22:57:18;;;;;;;93.90;43.13;;;12.20;94.90;;;;;;5056595;28;20036;-93
2021/11/13 23:00:01;;;;;;;94.35;43.67;;;11.70;95.00;;;;;;5058112;28;20181;-95
2021/11/13 23:02:36;;;;;;;96.18;44.58;;;12.00;94.90;;;;;;5072241;28;20024;-94
2021/11/13 23:05:07;;;;;;;95.25;43.55;;;12.30;94.90;;;;;;5057900;28;20036;-93
2021/11/13 23:07:39;;;;;;;91.60;44.35;;;12.00;95.00;;;;;;5058309;28;20080;-94
2021/11/13 23:10:46;;;;;;;95.10;47.78;;;11.70;94.80;;;;;;5057538;28;20024;-94
2021/11/13 23:13:15;;;;;;;95.53;46.40;;;12.20;94.80;;;;;;5090800;28;20047;-93
2021/11/13 23:15:47;;;;;;;84.72;46.22;;;11.80;94.90;;;;;;5057586;28;20030;-93
2021/11/13 23:18:12;;;;;;;97.97;46.20;;;11.90;94.90;;;;;;5052492;28;20089;-93
2021/11/13 23:20:47;;;;;;;101.95;44.42;;;12.10;94.90;;;;;;5051656;28;20040;-92
2021/11/13 23:23:38;;;;;;;103.05;48.13;;;11.80;95.20;;;;;;5068459;28;20028;-93
2021/11/13 23:26:59;;;;;;;89.32;46.53;;;11.90;95.10;;;;;;5070615;28;20138;-93
2021/11/13 23:29:32;;;;;;;98.22;46.13;;;11.80;95.00;;;;;;5087859;28;20039;-93
2021/11/13 23:31:57;;;;;;;92.38;45.20;;;12.40;95.20;;;;;;5068217;28;20504;-92
2021/11/13 23:34:32;;;;;;;79.25;44.45;;;12.20;95.20;;;;;;5054595;28;20036;-93
2021/11/13 23:36:58;;;;;;;100.25;46.10;;;12.10;95.10;;;;;;5070785;28;20023;-92
2021/11/13 23:39:41;;;;;;;100.75;44.17;;;12.00;95.10;;;;;;5054270;28;20535;-93
2021/11/13 23:42:29;;;;;;;83.50;44.05;;;11.80;94.90;;;;;;5055358;28;20024;-92
2021/11/13 23:44:56;;;;;;;88.10;44.25;;;12.00;95.00;;;;;;5027354;28;20067;-93
2021/11/13 23:47:31;;;;;;;88.43;43.60;;;12.00;95.00;;;;;;5055173;28;20055;-93
2021/11/13 23:50:13;;;;;;;87.90;44.20;;;11.50;94.90;;;;;;5067022;28;20123;-94
2021/11/13 23:52:39;;;;;;;81.55;42.33;;;11.80;94.90;;;;;;5072928;28;20412;-94
2021/11/13 23:55:14;;;;;;;84.43;43.63;;;11.80;95.00;;;;;;5055068;28;20040;-93
2021/11/13 23:57:40;;;;;;;94.07;44.38;;;11.80;95.00;;;;;;5056838;28;20020;-94
